Time;durP1;ratioP1;P1;durP2;ratioP2;P2;SDS_P1;SDS_P2;PMS_P1;PMS_P2;Temp;Humidity;BMP_temperature;BMP_pressure;BME280_temperature;BME280_humidity;BME280_pressure;Samples;Min_cycle;Max_cycle;Signal;HPM_P1;HPM_P2
2023/08/14 00:00:12;;;;;;;;;;;20.40;73.10;;;;;;5097447;28;19927;-65
2023/08/14 00:02:37;;;;;;;;;;;20.40;73.10;;;;;;5115856;28;20043;-66
2023/08/14 00:05:03;;;;;;;;;;;20.40;73.10;;;;;;5131457;27;19927;-65
2023/08/14 00:07:28;;;;;;;;;;;20.40;73.10;;;;;;5131520;27;20018;-66
2023/08/14 00:09:54;;;;;;;;;;;20.40;73.10;;;;;;5097517;28;19993;-65
2023/08/14 00:12:19;;;;;;;;;;;20.40;73.10;;;;;;5115836;28;20286;-65
2023/08/14 00:14:45;;;;;;;;;;;20.40;73.00;;;;;;5097550;28;19945;-66
2023/08/14 00:17:10;;;;;;;;;;;20.40;73.00;;;;;;5115419;28;20018;-65
2023/08/14 00:19:36;;;;;;;;;;;20.40;73.00;;;;;;5097140;28;19927;-65
2023/08/14 00:22:02;;;;;;;;;;;20.40;73.00;;;;;;5097370;28;19920;-65
2023/08/14 00:24:27;;;;;;;;;;;20.40;73.00;;;;;;5097080;28;19920;-65
2023/08/14 00:26:53;;;;;;;;;;;20.40;73.00;;;;;;5115619;28;20014;-65
2023/08/14 00:29:18;;;;;;;;;;;20.40;73.00;;;;;;5115280;28;19919;-66
2023/08/14 00:31:44;;;;;;;;;;;20.40;73.00;;;;;;5115259;28;19920;-65
2023/08/14 00:34:09;;;;;;;;;;;20.40;73.00;;;;;;5115295;28;19930;-65
2023/08/14 00:36:35;;;;;;;;;;;20.30;73.00;;;;;;5097071;28;19985;-65
2023/08/14 00:39:00;;;;;;;;;;;20.30;72.90;;;;;;5097137;28;19967;-65
2023/08/14 00:41:26;;;;;;;;;;;20.30;72.90;;;;;;5114925;28;20500;-65
2023/08/14 00:43:51;;;;;;;;;;;20.30;72.90;;;;;;5095726;28;19928;-65
2023/08/14 00:46:17;;;;;;;;;;;20.30;72.90;;;;;;5096573;28;19920;-65
2023/08/14 00:48:43;;;;;;;;;;;20.30;72.90;;;;;;5096902;28;19920;-65
2023/08/14 00:51:08;;;;;;;;;;;20.30;72.90;;;;;;5096825;28;19920;-66
2023/08/14 00:53:34;;;;;;;;;;;20.30;72.90;;;;;;5096488;28;19926;-65
2023/08/14 00:56:01;;;;;;;;;;;20.30;72.90;;;;;;5114742;28;19931;-66
2023/08/14 00:58:27;;;;;;;;;;;20.30;72.90;;;;;;5096334;28;20520;-65
2023/08/14 01:00:54;;;;;;;;;;;20.30;72.90;;;;;;5096389;28;19924;-65
2023/08/14 01:03:20;;;;;;;;;;;20.30;72.90;;;;;;5096245;28;19930;-66
2023/08/14 01:05:45;;;;;;;;;;;20.30;72.90;;;;;;5096473;28;19919;-65
2023/08/14 01:08:11;;;;;;;;;;;20.30;72.90;;;;;;5096113;28;19920;-65
2023/08/14 01:10:48;;;;;;;;;;;20.30;72.90;;;;;;5096237;28;19920;-65
2023/08/14 01:13:33;;;;;;;;;;;20.30;72.90;;;;;;5114551;28;20017;-65
2023/08/14 01:16:01;;;;;;;;;;;20.30;72.90;;;;;;5096207;28;19941;-72
2023/08/14 01:18:28;;;;;;;;;;;20.20;72.80;;;;;;5096214;28;20259;-66
2023/08/14 01:24:10;;;;;;;;;;;20.20;72.80;;;;;;5110299;27;19945;-69
2023/08/14 01:26:36;;;;;;;;;;;20.20;72.80;;;;;;5108910;28;20367;-66
2023/08/14 01:29:01;;;;;;;;;;;20.20;72.80;;;;;;5109110;28;19983;-65
2023/08/14 01:31:27;;;;;;;;;;;20.20;72.80;;;;;;5109246;28;19920;-65
2023/08/14 01:33:53;;;;;;;;;;;20.20;72.80;;;;;;5109100;28;19966;-65
2023/08/14 01:36:25;;;;;;;;;;;20.20;72.80;;;;;;5108810;28;20015;-72
2023/08/14 01:38:59;;;;;;;;;;;20.20;72.80;;;;;;5109046;28;19923;-65
2023/08/14 01:41:28;;;;;;;;;;;20.20;72.80;;;;;;5108936;28;19923;-65
2023/08/14 01:43:55;;;;;;;;;;;20.20;72.80;;;;;;5109909;28;19920;-65
2023/08/14 01:46:21;;;;;;;;;;;20.20;72.80;;;;;;5109958;28;19989;-65
2023/08/14 01:48:48;;;;;;;;;;;20.20;72.80;;;;;;5109745;28;19964;-65
2023/08/14 01:51:14;;;;;;;;;;;20.20;72.80;;;;;;5108836;28;19927;-65
2023/08/14 01:53:40;;;;;;;;;;;20.20;72.80;;;;;;5109750;28;19920;-65
2023/08/14 01:56:05;;;;;;;;;;;20.20;72.80;;;;;;5109613;28;19920;-65
2023/08/14 01:58:31;;;;;;;;;;;20.20;72.80;;;;;;5108332;28;20010;-65
2023/08/14 02:00:56;;;;;;;;;;;20.20;72.80;;;;;;5109617;28;19920;-65
2023/08/14 02:03:21;;;;;;;;;;;20.20;72.80;;;;;;5108057;28;19935;-65
2023/08/14 02:05:47;;;;;;;;;;;20.20;72.80;;;;;;5108501;28;19920;-72
2023/08/14 02:08:12;;;;;;;;;;;20.20;72.80;;;;;;5108520;28;19920;-65
2023/08/14 02:10:38;;;;;;;;;;;20.20;72.80;;;;;;5109551;28;19920;-65
2023/08/14 02:13:03;;;;;;;;;;;20.20;72.80;;;;;;5108108;28;20022;-65
2023/08/14 02:15:29;;;;;;;;;;;20.20;72.80;;;;;;5108360;28;19927;-65
2023/08/14 02:17:54;;;;;;;;;;;20.20;72.80;;;;;;5107939;28;19920;-65
2023/08/14 02:20:20;;;;;;;;;;;20.10;72.80;;;;;;5108102;28;19920;-65
2023/08/14 02:22:46;;;;;;;;;;;20.10;72.80;;;;;;5120624;28;20375;-65
2023/08/14 02:25:11;;;;;;;;;;;20.20;72.90;;;;;;5111166;28;19941;-65
2023/08/14 02:27:37;;;;;;;;;;;20.20;72.80;;;;;;5145975;27;19920;-65
2023/08/14 02:30:03;;;;;;;;;;;20.10;72.80;;;;;;5129390;28;20374;-66
2023/08/14 02:32:28;;;;;;;;;;;20.10;72.80;;;;;;5111104;28;19919;-65
2023/08/14 02:34:54;;;;;;;;;;;20.10;72.80;;;;;;5117007;28;20053;-65
2023/08/14 02:37:19;;;;;;;;;;;20.10;73.50;;;;;;5115717;28;19919;-65
2023/08/14 02:39:45;;;;;;;;;;;20.10;72.80;;;;;;5097640;28;20387;-65
2023/08/14 02:42:11;;;;;;;;;;;20.10;72.80;;;;;;5131420;27;19971;-71
2023/08/14 02:44:36;;;;;;;;;;;20.10;72.80;;;;;;5097326;28;19923;-65
2023/08/14 02:47:03;;;;;;;;;;;20.10;72.80;;;;;;5097465;28;20321;-65
2023/08/14 02:49:28;;;;;;;;;;;20.10;72.80;;;;;;5097809;28;20319;-71
2023/08/14 02:51:54;;;;;;;;;;;20.10;72.80;;;;;;5131290;27;19981;-65
2023/08/14 02:54:20;;;;;;;;;;;20.10;72.70;;;;;;5097359;28;19919;-65
2023/08/14 02:56:45;;;;;;;;;;;20.10;72.70;;;;;;5097277;28;20022;-72
2023/08/14 02:59:11;;;;;;;;;;;20.10;72.70;;;;;;5097297;28;19927;-66
2023/08/14 03:01:37;;;;;;;;;;;20.10;72.70;;;;;;5097104;28;20010;-66
2023/08/14 03:04:02;;;;;;;;;;;20.10;72.70;;;;;;5096898;28;19930;-65
2023/08/14 03:06:30;;;;;;;;;;;20.10;72.70;;;;;;5097154;28;20046;-65
2023/08/14 03:08:56;;;;;;;;;;;20.10;72.70;;;;;;5097185;28;19923;-65
2023/08/14 03:11:22;;;;;;;;;;;20.10;72.70;;;;;;5115201;28;20394;-65
2023/08/14 03:13:47;;;;;;;;;;;20.10;72.70;;;;;;5115128;28;20370;-65
2023/08/14 03:16:13;;;;;;;;;;;20.10;72.70;;;;;;5096994;28;19920;-65
2023/08/14 03:18:38;;;;;;;;;;;20.10;72.70;;;;;;5096625;28;19919;-65
2023/08/14 03:21:04;;;;;;;;;;;20.10;73.50;;;;;;5114741;28;19920;-65
2023/08/14 03:23:29;;;;;;;;;;;20.10;72.70;;;;;;5096301;28;19930;-65
2023/08/14 03:25:55;;;;;;;;;;;20.10;72.70;;;;;;5096817;28;19926;-65
2023/08/14 03:28:20;;;;;;;;;;;20.10;72.70;;;;;;5096708;28;19920;-65
2023/08/14 03:30:48;;;;;;;;;;;20.10;72.70;;;;;;5096401;28;19943;-65
2023/08/14 03:33:13;;;;;;;;;;;20.10;72.70;;;;;;5096533;28;20010;-65
2023/08/14 03:35:39;;;;;;;;;;;20.00;72.70;;;;;;5096284;28;20419;-66
2023/08/14 03:38:04;;;;;;;;;;;20.00;72.70;;;;;;5114481;28;19920;-72
2023/08/14 03:40:30;;;;;;;;;;;20.00;72.70;;;;;;5096516;28;20290;-65
2023/08/14 03:42:55;;;;;;;;;;;20.10;72.70;;;;;;5096190;28;19967;-70
2023/08/14 03:45:21;;;;;;;;;;;20.00;72.70;;;;;;5113447;28;20002;-66
2023/08/14 03:47:46;;;;;;;;;;;20.00;72.70;;;;;;5114334;28;19920;-65
2023/08/14 03:50:12;;;;;;;;;;;20.00;72.70;;;;;;5096076;28;20356;-65
2023/08/14 03:52:38;;;;;;;;;;;20.00;72.70;;;;;;5096152;28;20010;-65
2023/08/14 03:55:03;;;;;;;;;;;20.00;72.70;;;;;;5095925;28;19966;-65
2023/08/14 03:57:29;;;;;;;;;;;20.00;72.70;;;;;;5096346;28;19927;-65
2023/08/14 03:59:54;;;;;;;;;;;20.00;72.70;;;;;;5114110;28;20326;-65
2023/08/14 04:02:20;;;;;;;;;;;20.00;72.70;;;;;;5095867;28;19932;-65
2023/08/14 04:04:45;;;;;;;;;;;20.00;72.70;;;;;;5095982;28;19920;-66
2023/08/14 04:07:11;;;;;;;;;;;20.00;72.70;;;;;;5095924;28;19923;-65
2023/08/14 04:09:36;;;;;;;;;;;20.00;72.70;;;;;;5113845;28;19920;-66
2023/08/14 04:12:02;;;;;;;;;;;19.90;72.70;;;;;;5095274;28;20242;-65
2023/08/14 04:14:28;;;;;;;;;;;20.00;72.70;;;;;;5113903;28;19927;-65
2023/08/14 04:16:54;;;;;;;;;;;20.00;72.80;;;;;;5095814;28;19965;-72
2023/08/14 04:19:20;;;;;;;;;;;20.00;72.70;;;;;;5095708;28;19924;-65
2023/08/14 04:21:46;;;;;;;;;;;19.90;72.80;;;;;;5095209;28;20446;-65
2023/08/14 04:24:11;;;;;;;;;;;20.00;72.70;;;;;;5095224;28;19927;-65
2023/08/14 04:26:37;;;;;;;;;;;19.90;72.70;;;;;;5095310;28;19919;-65
2023/08/14 04:29:03;;;;;;;;;;;19.90;72.70;;;;;;5113641;28;20026;-65
2023/08/14 04:31:29;;;;;;;;;;;19.90;72.70;;;;;;5095577;28;19920;-66
2023/08/14 04:33:54;;;;;;;;;;;19.90;72.70;;;;;;5095536;28;19943;-65
2023/08/14 04:36:20;;;;;;;;;;;19.90;72.70;;;;;;5095257;28;19920;-66
2023/08/14 04:38:46;;;;;;;;;;;19.90;72.70;;;;;;5078483;28;20019;-65
2023/08/14 04:41:11;;;;;;;;;;;19.90;72.70;;;;;;5113307;28;19963;-65
2023/08/14 04:43:36;;;;;;;;;;;19.90;72.70;;;;;;5094971;28;19973;-66
2023/08/14 04:46:08;;;;;;;;;;;19.90;72.70;;;;;;5094947;28;20019;-72
2023/08/14 04:48:33;;;;;;;;;;;19.90;72.70;;;;;;5094952;28;19919;-66
2023/08/14 04:50:58;;;;;;;;;;;19.90;72.70;;;;;;5095118;28;20289;-66
2023/08/14 04:53:24;;;;;;;;;;;19.90;72.70;;;;;;5094834;28;20358;-65
2023/08/14 04:55:51;;;;;;;;;;;19.90;72.70;;;;;;5094682;28;19999;-65
2023/08/14 04:58:16;;;;;;;;;;;19.90;72.70;;;;;;5112861;28;19965;-66
2023/08/14 05:00:42;;;;;;;;;;;19.90;72.70;;;;;;5095077;28;19971;-65
2023/08/14 05:03:07;;;;;;;;;;;19.90;72.70;;;;;;5094633;28;19924;-65
2023/08/14 05:05:33;;;;;;;;;;;19.90;72.70;;;;;;5112996;28;19919;-65
2023/08/14 05:07:58;;;;;;;;;;;19.90;72.70;;;;;;5094699;28;20007;-66
2023/08/14 05:10:24;;;;;;;;;;;19.90;72.70;;;;;;5128982;27;19920;-65
2023/08/14 05:12:49;;;;;;;;;;;19.90;72.70;;;;;;5129045;27;20006;-65
2023/08/14 05:15:15;;;;;;;;;;;19.90;72.70;;;;;;5112927;28;20328;-65
2023/08/14 05:17:40;;;;;;;;;;;19.90;72.70;;;;;;5113014;28;19927;-66
2023/08/14 05:20:06;;;;;;;;;;;19.90;72.70;;;;;;5094471;28;19920;-65
2023/08/14 05:22:31;;;;;;;;;;;19.90;72.60;;;;;;5112563;28;19930;-66
2023/08/14 05:24:57;;;;;;;;;;;19.90;72.60;;;;;;5112600;28;19993;-65
2023/08/14 05:27:22;;;;;;;;;;;19.90;72.60;;;;;;5094435;28;19924;-66
2023/08/14 05:29:48;;;;;;;;;;;19.90;72.70;;;;;;5128640;28;19941;-72
2023/08/14 05:32:13;;;;;;;;;;;19.90;72.60;;;;;;5094655;28;19927;-65
2023/08/14 05:34:39;;;;;;;;;;;19.90;72.60;;;;;;5112790;28;19920;-65
2023/08/14 05:37:04;;;;;;;;;;;19.90;72.60;;;;;;5094378;28;19920;-74
2023/08/14 05:39:30;;;;;;;;;;;19.90;72.60;;;;;;5128869;28;19963;-66
2023/08/14 05:41:55;;;;;;;;;;;19.90;72.70;;;;;;5094012;28;20303;-72
2023/08/14 05:44:21;;;;;;;;;;;19.90;72.60;;;;;;5094588;28;19927;-66
2023/08/14 05:46:46;;;;;;;;;;;19.90;72.60;;;;;;5128360;28;19927;-65
2023/08/14 05:49:12;;;;;;;;;;;19.90;72.60;;;;;;5128704;28;19924;-65
2023/08/14 05:51:37;;;;;;;;;;;19.90;72.60;;;;;;5094175;28;20014;-65
2023/08/14 05:54:03;;;;;;;;;;;19.80;72.50;;;;;;5111732;28;19974;-65
2023/08/14 05:56:28;;;;;;;;;;;19.90;72.60;;;;;;5111364;28;19959;-66
2023/08/14 05:58:57;;;;;;;;;;;19.90;72.60;;;;;;5094478;28;19963;-65
2023/08/14 06:01:23;;;;;;;;;;;19.90;72.60;;;;;;5094213;28;19924;-65
2023/08/14 06:03:49;;;;;;;;;;;19.90;72.60;;;;;;5094103;28;19923;-70
2023/08/14 06:06:15;;;;;;;;;;;19.90;72.60;;;;;;5112287;28;19969;-65
2023/08/14 06:08:40;;;;;;;;;;;19.90;72.60;;;;;;5094946;28;19963;-66
2023/08/14 06:11:06;;;;;;;;;;;19.90;72.70;;;;;;5097576;28;20022;-65
2023/08/14 06:13:32;;;;;;;;;;;19.90;72.70;;;;;;5115689;28;19971;-71
2023/08/14 06:15:57;;;;;;;;;;;19.90;72.70;;;;;;5097111;28;20457;-65
2023/08/14 06:18:23;;;;;;;;;;;20.00;72.80;;;;;;5097745;28;19926;-65
2023/08/14 06:20:49;;;;;;;;;;;20.00;72.80;;;;;;5098074;28;20218;-65
2023/08/14 06:23:15;;;;;;;;;;;19.90;72.80;;;;;;5131541;27;19939;-65
2023/08/14 06:25:40;;;;;;;;;;;20.00;72.90;;;;;;5131833;27;19920;-65
2023/08/14 06:28:06;;;;;;;;;;;20.00;72.90;;;;;;5115806;28;20034;-65
2023/08/14 06:30:32;;;;;;;;;;;20.00;72.90;;;;;;5097828;28;19923;-65
2023/08/14 06:32:57;;;;;;;;;;;19.90;73.60;;;;;;5131987;27;20275;-66
2023/08/14 06:35:23;;;;;;;;;;;19.90;72.90;;;;;;5131716;27;20293;-65
2023/08/14 06:37:49;;;;;;;;;;;20.00;72.90;;;;;;5097779;28;20151;-65
2023/08/14 06:40:14;;;;;;;;;;;19.90;72.90;;;;;;5131564;27;19926;-65
2023/08/14 06:42:40;;;;;;;;;;;19.90;72.80;;;;;;5097354;28;19923;-66
2023/08/14 06:45:06;;;;;;;;;;;19.90;72.90;;;;;;5097607;28;20400;-66
2023/08/14 06:47:31;;;;;;;;;;;19.90;72.80;;;;;;5131443;27;19919;-65
2023/08/14 06:49:57;;;;;;;;;;;20.00;72.90;;;;;;5097150;28;19924;-65
2023/08/14 06:52:22;;;;;;;;;;;19.90;72.80;;;;;;5115622;28;19997;-65
2023/08/14 06:54:48;;;;;;;;;;;19.90;72.80;;;;;;5115349;28;19920;-65
2023/08/14 06:57:13;;;;;;;;;;;19.90;72.80;;;;;;5115391;28;20297;-65
2023/08/14 06:59:38;;;;;;;;;;;19.90;72.80;;;;;;5097018;28;20442;-65
2023/08/14 07:02:04;;;;;;;;;;;19.90;72.80;;;;;;5115182;28;19924;-65
2023/08/14 07:04:30;;;;;;;;;;;19.90;72.80;;;;;;5097269;28;19920;-65
2023/08/14 07:06:55;;;;;;;;;;;19.90;72.80;;;;;;5096914;28;19919;-65
2023/08/14 07:09:21;;;;;;;;;;;19.90;72.80;;;;;;5096980;28;19927;-65
2023/08/14 07:11:47;;;;;;;;;;;20.00;72.90;;;;;;5097216;28;19934;-65
2023/08/14 07:14:12;;;;;;;;;;;19.90;72.80;;;;;;5097005;28;19927;-66
2023/08/14 07:16:38;;;;;;;;;;;19.90;72.80;;;;;;5096758;28;19920;-66
2023/08/14 07:19:03;;;;;;;;;;;19.90;72.80;;;;;;5114894;28;19920;-66
2023/08/14 07:21:29;;;;;;;;;;;19.90;72.80;;;;;;5114577;28;19982;-65
2023/08/14 07:23:54;;;;;;;;;;;19.90;72.80;;;;;;5096539;28;19924;-65
2023/08/14 07:26:20;;;;;;;;;;;19.90;72.80;;;;;;5096864;28;19923;-65
2023/08/14 07:28:45;;;;;;;;;;;19.90;72.80;;;;;;5096723;28;19966;-66
2023/08/14 07:31:11;;;;;;;;;;;20.00;72.80;;;;;;5096326;28;19970;-65
2023/08/14 07:33:36;;;;;;;;;;;20.00;72.80;;;;;;5096790;28;19923;-65
2023/08/14 07:36:03;;;;;;;;;;;19.90;72.70;;;;;;5096594;28;19977;-65
2023/08/14 07:38:28;;;;;;;;;;;20.00;72.80;;;;;;5114627;28;19924;-66
2023/08/14 07:40:54;;;;;;;;;;;20.00;72.80;;;;;;5096234;28;19927;-66
2023/08/14 07:43:20;;;;;;;;;;;19.90;72.70;;;;;;5114398;28;20042;-65
2023/08/14 07:45:45;;;;;;;;;;;20.00;72.70;;;;;;5096094;28;20018;-65
2023/08/14 07:48:11;;;;;;;;;;;20.00;72.70;;;;;;5096423;28;20018;-65
2023/08/14 07:50:36;;;;;;;;;;;20.00;72.70;;;;;;5096382;28;19972;-66
2023/08/14 07:53:02;;;;;;;;;;;20.00;72.70;;;;;;5096026;28;20290;-65
2023/08/14 07:55:27;;;;;;;;;;;20.00;72.70;;;;;;5114236;28;19931;-66
2023/08/14 07:57:53;;;;;;;;;;;20.00;72.70;;;;;;5114669;28;20010;-65
2023/08/14 08:00:18;;;;;;;;;;;20.00;72.70;;;;;;5114103;28;19927;-66
2023/08/14 08:02:44;;;;;;;;;;;20.00;72.60;;;;;;5095844;28;19924;-65
2023/08/14 08:05:09;;;;;;;;;;;20.00;72.60;;;;;;5096094;28;19924;-65
2023/08/14 08:07:35;;;;;;;;;;;20.00;72.70;;;;;;5095630;28;19930;-66
2023/08/14 08:10:01;;;;;;;;;;;20.00;72.70;;;;;;5114052;28;19920;-66
2023/08/14 08:12:27;;;;;;;;;;;20.00;72.70;;;;;;5095605;28;20010;-65
2023/08/14 08:14:52;;;;;;;;;;;20.00;72.60;;;;;;5113869;28;20054;-66
2023/08/14 08:17:18;;;;;;;;;;;20.00;72.70;;;;;;5129861;27;19927;-65
2023/08/14 08:19:45;;;;;;;;;;;20.00;72.60;;;;;;5113884;28;20396;-65
2023/08/14 08:22:11;;;;;;;;;;;20.00;72.60;;;;;;5095117;28;19923;-71
2023/08/14 08:24:36;;;;;;;;;;;20.00;72.50;;;;;;5129531;27;20007;-66
2023/08/14 08:27:02;;;;;;;;;;;20.00;72.60;;;;;;5129755;27;20039;-66
2023/08/14 08:29:27;;;;;;;;;;;20.00;72.50;;;;;;5095691;28;19947;-66
2023/08/14 08:31:53;;;;;;;;;;;20.00;72.50;;;;;;5094837;28;20018;-65
2023/08/14 08:34:18;;;;;;;;;;;20.00;72.50;;;;;;5113715;28;20355;-65
2023/08/14 08:36:44;;;;;;;;;;;20.00;72.50;;;;;;5113373;28;19923;-66
2023/08/14 08:39:09;;;;;;;;;;;20.00;72.50;;;;;;5095216;28;19927;-65
2023/08/14 08:41:37;;;;;;;;;;;20.00;72.40;;;;;;5113379;28;20069;-66
2023/08/14 08:44:07;;;;;;;;;;;20.00;72.40;;;;;;5095392;28;19984;-65
2023/08/14 08:46:35;;;;;;;;;;;20.00;72.40;;;;;;5113289;28;19927;-65
2023/08/14 08:49:02;;;;;;;;;;;20.00;72.40;;;;;;5095031;28;20052;-65
2023/08/14 08:51:28;;;;;;;;;;;20.00;72.40;;;;;;5095273;28;20443;-66
2023/08/14 08:53:53;;;;;;;;;;;20.10;72.40;;;;;;5129084;27;20018;-65
2023/08/14 08:56:19;;;;;;;;;;;20.00;72.30;;;;;;5095211;28;19920;-66
2023/08/14 08:58:44;;;;;;;;;;;20.00;72.40;;;;;;5095075;28;19927;-66
2023/08/14 09:01:10;;;;;;;;;;;20.10;72.40;;;;;;5112997;28;20408;-65
2023/08/14 09:03:35;;;;;;;;;;;20.00;72.30;;;;;;5112801;28;19935;-66
2023/08/14 09:06:01;;;;;;;;;;;20.00;72.40;;;;;;5094756;28;19965;-66
2023/08/14 09:08:26;;;;;;;;;;;20.00;72.30;;;;;;5094998;28;19919;-66
2023/08/14 09:10:52;;;;;;;;;;;20.10;72.40;;;;;;5094788;28;20010;-65
2023/08/14 09:13:17;;;;;;;;;;;20.10;72.30;;;;;;5094618;28;19927;-66
2023/08/14 09:15:44;;;;;;;;;;;20.10;72.30;;;;;;5094961;28;19919;-65
2023/08/14 09:18:10;;;;;;;;;;;20.10;72.40;;;;;;5094457;28;19924;-66
2023/08/14 09:20:36;;;;;;;;;;;20.10;72.30;;;;;;5094805;28;20378;-66
2023/08/14 09:23:01;;;;;;;;;;;20.10;72.40;;;;;;5090774;28;19977;-66
2023/08/14 09:25:27;;;;;;;;;;;20.10;72.40;;;;;;5091475;28;19943;-65
2023/08/14 09:27:53;;;;;;;;;;;20.10;72.30;;;;;;5091153;28;20405;-65
2023/08/14 09:30:19;;;;;;;;;;;20.10;72.30;;;;;;5091531;28;19920;-65
2023/08/14 09:32:44;;;;;;;;;;;20.10;72.30;;;;;;5092304;28;20457;-65
2023/08/14 09:35:10;;;;;;;;;;;20.20;72.20;;;;;;5090991;28;19920;-66
2023/08/14 09:37:35;;;;;;;;;;;20.20;72.20;;;;;;5090980;28;19949;-65
2023/08/14 09:40:17;;;;;;;;;;;20.20;72.10;;;;;;5091255;28;20275;-66
2023/08/14 09:42:44;;;;;;;;;;;20.20;72.00;;;;;;5091084;28;19982;-66
2023/08/14 09:45:11;;;;;;;;;;;20.20;71.90;;;;;;5095433;28;19920;-66
2023/08/14 09:47:37;;;;;;;;;;;20.30;72.00;;;;;;5096312;28;20065;-66
2023/08/14 09:50:03;;;;;;;;;;;20.20;71.80;;;;;;5095290;28;19971;-65
2023/08/14 09:52:28;;;;;;;;;;;20.30;71.80;;;;;;5095558;28;19921;-66
2023/08/14 09:54:54;;;;;;;;;;;20.30;71.80;;;;;;5094901;28;20353;-66
2023/08/14 09:57:22;;;;;;;;;;;20.30;71.80;;;;;;5096256;28;19920;-65
2023/08/14 09:59:48;;;;;;;;;;;20.30;71.80;;;;;;5096103;28;19925;-66
2023/08/14 10:02:15;;;;;;;;;;;20.30;71.70;;;;;;5095873;28;19977;-65
2023/08/14 10:04:42;;;;;;;;;;;20.30;71.70;;;;;;5095025;28;20423;-66
2023/08/14 10:07:09;;;;;;;;;;;20.30;71.60;;;;;;5096154;28;19920;-65
2023/08/14 10:09:34;;;;;;;;;;;20.40;71.60;;;;;;5095096;28;19956;-66
2023/08/14 10:12:06;;;;;;;;;;;20.40;71.70;;;;;;5094599;28;20405;-65
2023/08/14 10:14:34;;;;;;;;;;;20.40;71.60;;;;;;5094876;28;19920;-66
2023/08/14 10:17:00;;;;;;;;;;;20.40;71.60;;;;;;5094782;28;19920;-66
2023/08/14 10:19:30;;;;;;;;;;;20.40;71.60;;;;;;5094487;28;19923;-65
2023/08/14 10:21:56;;;;;;;;;;;20.40;71.60;;;;;;5094054;28;19927;-66
2023/08/14 10:24:22;;;;;;;;;;;20.40;71.60;;;;;;5094417;28;19973;-66
2023/08/14 10:26:48;;;;;;;;;;;20.40;71.60;;;;;;5094281;28;20367;-66
2023/08/14 10:29:14;;;;;;;;;;;20.30;71.60;;;;;;5094614;28;19965;-65
2023/08/14 10:31:40;;;;;;;;;;;20.40;71.60;;;;;;5094385;28;19978;-65
2023/08/14 10:34:06;;;;;;;;;;;20.40;72.40;;;;;;5095551;28;20379;-65
2023/08/14 10:36:31;;;;;;;;;;;20.40;71.60;;;;;;5094133;28;19926;-66
2023/08/14 10:39:05;;;;;;;;;;;20.40;71.60;;;;;;5095419;28;20314;-66
2023/08/14 10:41:33;;;;;;;;;;;20.40;71.70;;;;;;5094045;28;19963;-66
2023/08/14 10:44:03;;;;;;;;;;;20.40;71.60;;;;;;5093931;28;20383;-66
2023/08/14 10:46:29;;;;;;;;;;;20.40;71.60;;;;;;5094496;28;19931;-66
2023/08/14 10:48:54;;;;;;;;;;;20.40;71.70;;;;;;5095374;28;20382;-65
2023/08/14 10:51:21;;;;;;;;;;;20.40;71.70;;;;;;5095109;28;20386;-70
2023/08/14 10:53:46;;;;;;;;;;;20.40;71.70;;;;;;5094163;28;19920;-66
2023/08/14 10:56:12;;;;;;;;;;;20.40;71.60;;;;;;5127384;27;19985;-71
2023/08/14 10:58:38;;;;;;;;;;;20.50;71.80;;;;;;5095023;28;20007;-65
2023/08/14 11:01:04;;;;;;;;;;;20.40;71.70;;;;;;5093616;28;20002;-65
2023/08/14 11:03:32;;;;;;;;;;;20.40;71.70;;;;;;5095004;28;20440;-65
2023/08/14 11:05:57;;;;;;;;;;;20.40;71.70;;;;;;5094900;28;19924;-66
2023/08/14 11:08:23;;;;;;;;;;;20.40;71.70;;;;;;5093908;28;19966;-65
2023/08/14 11:10:49;;;;;;;;;;;20.40;71.80;;;;;;5093116;28;20359;-65
2023/08/14 11:13:15;;;;;;;;;;;20.40;71.80;;;;;;5093617;28;19986;-65
2023/08/14 11:15:41;;;;;;;;;;;20.40;71.80;;;;;;5093660;28;19920;-65
2023/08/14 11:18:09;;;;;;;;;;;20.40;71.80;;;;;;5093301;28;19931;-65
2023/08/14 11:20:37;;;;;;;;;;;20.40;71.80;;;;;;5093644;28;19923;-65
2023/08/14 11:23:03;;;;;;;;;;;20.40;71.90;;;;;;5092909;28;19928;-65
2023/08/14 11:25:28;;;;;;;;;;;20.40;71.90;;;;;;5093351;28;19920;-66
2023/08/14 11:27:55;;;;;;;;;;;20.40;71.90;;;;;;5093768;28;20014;-65
2023/08/14 11:30:23;;;;;;;;;;;20.40;72.00;;;;;;5094379;28;19920;-66
2023/08/14 11:32:49;;;;;;;;;;;20.40;72.00;;;;;;5093278;28;20420;-67
2023/08/14 11:35:15;;;;;;;;;;;20.40;72.00;;;;;;5094489;28;19924;-65
2023/08/14 11:37:41;;;;;;;;;;;20.40;72.10;;;;;;5093312;28;19969;-66
2023/08/14 11:40:07;;;;;;;;;;;20.40;72.10;;;;;;5092921;28;20379;-66
2023/08/14 11:42:33;;;;;;;;;;;20.50;72.20;;;;;;5092919;28;19928;-65
2023/08/14 11:45:03;;;;;;;;;;;20.40;72.20;;;;;;5093116;28;19973;-66
2023/08/14 11:47:30;;;;;;;;;;;20.40;72.20;;;;;;5094337;28;19920;-70
2023/08/14 11:49:56;;;;;;;;;;;20.40;72.20;;;;;;5092085;28;19920;-65
2023/08/14 11:52:22;;;;;;;;;;;20.40;72.20;;;;;;5093061;28;19920;-65
2023/08/14 11:54:48;;;;;;;;;;;20.40;72.40;;;;;;5092550;28;20268;-70
2023/08/14 11:57:13;;;;;;;;;;;20.40;72.20;;;;;;5093908;28;19920;-70
2023/08/14 11:59:39;;;;;;;;;;;20.40;72.30;;;;;;5092741;28;19990;-65
2023/08/14 12:02:04;;;;;;;;;;;20.40;72.30;;;;;;5092852;28;19962;-65
2023/08/14 12:04:30;;;;;;;;;;;20.40;72.30;;;;;;5092384;28;19974;-65
2023/08/14 12:06:55;;;;;;;;;;;20.40;72.40;;;;;;5091780;28;19924;-65
2023/08/14 12:09:25;;;;;;;;;;;20.40;72.40;;;;;;5092287;28;19946;-65
2023/08/14 12:11:50;;;;;;;;;;;20.40;72.40;;;;;;5092593;28;19920;-66
2023/08/14 12:14:16;;;;;;;;;;;20.50;72.50;;;;;;5092456;28;19920;-65
2023/08/14 12:16:41;;;;;;;;;;;20.50;72.60;;;;;;5092503;28;19924;-65
2023/08/14 12:19:08;;;;;;;;;;;20.50;72.60;;;;;;5093356;28;19924;-65
2023/08/14 12:21:34;;;;;;;;;;;20.50;72.60;;;;;;5093936;28;19924;-65
2023/08/14 12:24:00;;;;;;;;;;;20.50;72.60;;;;;;5095332;28;19973;-65
2023/08/14 12:26:26;;;;;;;;;;;20.50;72.70;;;;;;5095699;28;20276;-66
2023/08/14 12:28:51;;;;;;;;;;;20.50;72.70;;;;;;5095634;28;20006;-65
2023/08/14 12:31:17;;;;;;;;;;;20.50;72.60;;;;;;5095486;28;19924;-65
2023/08/14 12:33:43;;;;;;;;;;;20.50;72.70;;;;;;5113782;28;19920;-66
2023/08/14 12:36:10;;;;;;;;;;;20.50;72.80;;;;;;5095461;28;19920;-65
2023/08/14 12:38:36;;;;;;;;;;;20.50;72.70;;;;;;5095333;28;19923;-65
2023/08/14 12:41:01;;;;;;;;;;;20.50;72.70;;;;;;5095107;28;20211;-66
2023/08/14 12:43:27;;;;;;;;;;;20.50;72.80;;;;;;5113316;28;19928;-65
2023/08/14 12:45:52;;;;;;;;;;;20.50;72.80;;;;;;5095003;28;19942;-66
2023/08/14 12:48:18;;;;;;;;;;;20.50;72.90;;;;;;5095311;28;19985;-65
2023/08/14 12:50:43;;;;;;;;;;;20.50;72.90;;;;;;5113421;28;19927;-65
2023/08/14 12:53:15;;;;;;;;;;;20.50;72.80;;;;;;5129239;27;20004;-65
2023/08/14 12:55:40;;;;;;;;;;;20.50;72.90;;;;;;5095096;28;19920;-65
2023/08/14 12:58:05;;;;;;;;;;;20.50;72.90;;;;;;5129269;27;20329;-65
2023/08/14 13:00:31;;;;;;;;;;;20.50;72.90;;;;;;5095081;28;20011;-66
2023/08/14 13:02:56;;;;;;;;;;;20.50;72.90;;;;;;5094669;28;20423;-65
2023/08/14 13:05:22;;;;;;;;;;;20.60;73.10;;;;;;5094632;28;19977;-65
2023/08/14 13:07:47;;;;;;;;;;;20.50;72.90;;;;;;5095039;28;19920;-65
2023/08/14 13:10:13;;;;;;;;;;;20.60;73.00;;;;;;5094718;28;19965;-66
2023/08/14 13:12:38;;;;;;;;;;;20.60;73.10;;;;;;5094900;28;19972;-65
2023/08/14 13:15:04;;;;;;;;;;;20.60;73.00;;;;;;5094621;28;19963;-65
2023/08/14 13:17:29;;;;;;;;;;;20.60;73.10;;;;;;5094383;28;19926;-65
2023/08/14 13:19:55;;;;;;;;;;;20.60;73.10;;;;;;5094826;28;20010;-65
2023/08/14 13:22:20;;;;;;;;;;;20.60;73.10;;;;;;5094334;28;19977;-66
2023/08/14 13:24:46;;;;;;;;;;;20.60;73.20;;;;;;5094864;28;20375;-65
2023/08/14 13:27:11;;;;;;;;;;;20.60;73.10;;;;;;5094418;28;19930;-65
2023/08/14 13:29:37;;;;;;;;;;;20.60;73.90;;;;;;5094829;28;19920;-65
2023/08/14 13:32:02;;;;;;;;;;;20.60;73.20;;;;;;5112557;28;20282;-65
2023/08/14 13:34:29;;;;;;;;;;;20.60;73.20;;;;;;5112774;28;20427;-65
2023/08/14 13:36:54;;;;;;;;;;;20.60;73.20;;;;;;5094741;28;20011;-65
2023/08/14 13:39:20;;;;;;;;;;;20.60;73.20;;;;;;5094703;28;20019;-65
2023/08/14 13:41:45;;;;;;;;;;;20.60;73.20;;;;;;5112599;28;20366;-65
2023/08/14 13:44:11;;;;;;;;;;;20.60;73.20;;;;;;5094375;28;20014;-65
2023/08/14 13:46:37;;;;;;;;;;;20.60;73.20;;;;;;5112630;28;19920;-66
2023/08/14 13:49:06;;;;;;;;;;;20.60;73.20;;;;;;5094633;28;19984;-66
2023/08/14 13:51:32;;;;;;;;;;;20.70;73.30;;;;;;5094666;28;19931;-66
2023/08/14 13:53:57;;;;;;;;;;;20.60;73.30;;;;;;5094224;28;19928;-66
2023/08/14 13:56:23;;;;;;;;;;;20.70;73.30;;;;;;5094274;28;19965;-66
2023/08/14 13:58:49;;;;;;;;;;;20.70;73.30;;;;;;5112562;28;19964;-66
2023/08/14 14:01:15;;;;;;;;;;;20.70;73.30;;;;;;5094531;28;19919;-66
2023/08/14 14:03:40;;;;;;;;;;;20.70;73.30;;;;;;5094025;28;20432;-65
2023/08/14 14:06:06;;;;;;;;;;;20.70;73.30;;;;;;5112854;28;19959;-65
2023/08/14 14:08:31;;;;;;;;;;;20.70;73.30;;;;;;5112689;28;19976;-66
2023/08/14 14:10:57;;;;;;;;;;;20.70;73.30;;;;;;5094473;28;19920;-65